Santiago, Chile
Current Conditions -  °F | °C
As of 2:00 PM on Thursday 27 Nov 2014 (Local Time) from SCTB Reporting Station
Clear Clear  
Wind Chill: 81°   Ceiling: Unl
Heat Index: 81°   Visibility: 6mi
Dew Point: 55°   Wind: 8mph
Humidity: 42%   Direction: 250°WSW
Pressure: 29.97"   Gusts: NA
Location:  33.46°S, 70.64°W
Report Text: SCTB 271800Z 25007KT CAVOK 27/13 Q1015
Loading
Personal Weather Stations






























Interactive Weather Map New forecast layout! Learn more

10-Day Weather Forecast

Advertisements
Track Severe Weather on mobile